Terminal Aerodrome Forecast
Issued by NWS

Home | Current Version | Previous Version | Text Only | Print | Product List | Glossary On
Versions: 1 2 3 4 5 6 7 8 9 10 11 12 13 14 15 16 17 18 19
000
FTUS45 KRIW 292300
TAFBPI
TAF
KBPI 292324Z 3000/3024 29010KT P6SM SCT050 BKN080
     FM300200 34008KT P6SM SCT080
     FM302100 27010G18KT P6SM VCTS SCT030CB BKN050=

USA.gov is the U.S. government's official web portal to all federal, state and local government web resources and services.